Time;durP1;ratioP1;P1;durP2;ratioP2;P2;SDS_P1;SDS_P2;PMS_P1;PMS_P2;Temp;Humidity;BMP_temperature;BMP_pressure;BME280_temperature;BME280_humidity;BME280_pressure;Samples;Min_cycle;Max_cycle;Signal;HPM_P1;HPM_P2
2022/06/23 00:00:23;;;;;;;1.53;1.43;;;18.60;99.90;;;;;;5077676;28;20468;-84
2022/06/23 00:02:50;;;;;;;3.53;3.23;;;18.50;99.90;;;;;;5073703;28;20460;-85
2022/06/23 00:05:23;;;;;;;3.57;3.00;;;18.50;99.90;;;;;;5080254;28;22484;-85
2022/06/23 00:07:53;;;;;;;5.00;2.60;;;18.60;99.90;;;;;;5079124;28;20817;-87
2022/06/23 00:10:22;;;;;;;3.60;3.10;;;18.50;99.90;;;;;;5073397;28;20456;-85
2022/06/23 00:12:50;;;;;;;2.60;2.40;;;18.50;99.90;;;;;;5082365;28;20488;-86
2022/06/23 00:15:25;;;;;;;2.17;2.00;;;18.60;99.90;;;;;;5081888;28;20550;-85
2022/06/23 00:17:59;;;;;;;2.93;2.67;;;18.60;99.90;;;;;;5079394;28;20458;-85
2022/06/23 00:20:32;;;;;;;3.27;3.07;;;18.60;99.90;;;;;;5073391;28;20924;-84
2022/06/23 00:23:07;;;;;;;3.97;3.67;;;18.50;99.90;;;;;;5073730;28;20456;-85
2022/06/23 00:25:45;;;;;;;2.47;2.37;;;18.50;99.90;;;;;;5080806;28;20987;-85
2022/06/23 00:28:18;;;;;;;3.60;2.60;;;18.60;99.90;;;;;;5081571;28;20982;-85
2022/06/23 00:30:49;;;;;;;3.90;3.43;;;18.60;99.90;;;;;;5080068;28;20552;-85
2022/06/23 00:33:19;;;;;;;2.70;2.50;;;18.60;99.90;;;;;;5082947;28;20505;-86
2022/06/23 00:35:50;;;;;;;2.50;2.30;;;18.60;99.90;;;;;;5075259;28;20923;-86
2022/06/23 00:38:21;;;;;;;2.50;2.30;;;18.60;99.90;;;;;;5079724;28;20463;-86
2022/06/23 00:40:49;;;;;;;2.53;2.33;;;18.60;99.90;;;;;;5071419;28;20593;-85
2022/06/23 00:43:18;;;;;;;2.33;2.13;;;18.70;99.90;;;;;;5083664;28;20467;-85
2022/06/23 00:45:50;;;;;;;2.60;1.90;;;18.70;99.90;;;;;;5079505;28;20486;-85
2022/06/23 00:48:22;;;;;;;3.30;2.93;;;18.70;99.90;;;;;;5078580;28;20516;-87
2022/06/23 00:50:55;;;;;;;2.93;2.60;;;18.60;99.90;;;;;;5076293;28;20557;-89
2022/06/23 00:53:29;;;;;;;3.10;2.80;;;18.50;99.90;;;;;;5080886;28;21303;-86
2022/06/23 00:56:03;;;;;;;3.40;3.20;;;18.60;99.90;;;;;;5077419;28;20956;-86
2022/06/23 00:58:37;;;;;;;3.50;3.20;;;18.60;99.90;;;;;;5079834;28;20850;-86
2022/06/23 01:01:14;;;;;;;2.97;2.77;;;18.70;99.90;;;;;;5073589;28;20545;-87
2022/06/23 01:03:52;;;;;;;2.50;2.30;;;18.80;99.90;;;;;;5080994;28;20472;-86
2022/06/23 01:06:30;;;;;;;3.03;2.77;;;18.90;99.90;;;;;;5070110;28;20536;-86
2022/06/23 01:09:01;;;;;;;1.80;1.70;;;18.80;99.90;;;;;;5083268;28;20508;-86
2022/06/23 01:11:35;;;;;;;3.37;2.83;;;18.60;99.90;;;;;;5078305;28;20545;-86
2022/06/23 01:14:15;;;;;;;3.83;3.50;;;18.60;99.90;;;;;;5072958;28;20579;-87
2022/06/23 01:16:45;;;;;;;4.63;3.43;;;18.50;99.90;;;;;;5070076;28;20522;-86
2022/06/23 01:19:41;;;;;;;3.40;3.10;;;18.50;99.90;;;;;;5078944;28;20488;-87
2022/06/23 01:22:20;;;;;;;4.20;2.63;;;18.60;99.90;;;;;;5070917;28;21261;-85
2022/06/23 01:24:57;;;;;;;14.87;3.60;;;18.50;99.90;;;;;;5084830;28;20480;-86
2022/06/23 01:27:53;;;;;;;10.00;3.00;;;18.50;99.90;;;;;;5071413;28;20571;-88
2022/06/23 01:30:22;;;;;;;11.67;3.57;;;18.40;99.90;;;;;;5082551;28;20452;-85
2022/06/23 01:32:57;;;;;;;6.43;2.40;;;18.40;99.90;;;;;;5076811;28;20463;-85
2022/06/23 01:35:30;;;;;;;3.13;2.93;;;18.40;99.90;;;;;;5072139;28;20542;-86
2022/06/23 01:38:00;;;;;;;2.60;2.40;;;18.50;99.90;;;;;;5077645;28;20474;-86
2022/06/23 01:40:31;;;;;;;7.53;2.67;;;18.40;99.90;;;;;;5075329;28;20464;-85
2022/06/23 01:43:04;;;;;;;3.80;3.50;;;18.30;99.90;;;;;;5072377;28;20552;-85
2022/06/23 01:45:37;;;;;;;3.80;3.20;;;18.30;99.90;;;;;;5072367;28;20526;-86
2022/06/23 01:48:12;;;;;;;2.80;2.20;;;18.20;99.90;;;;;;5080423;28;20883;-85
2022/06/23 01:50:43;;;;;;;3.50;3.23;;;18.30;99.90;;;;;;5078940;28;20562;-86
2022/06/23 01:53:21;;;;;;;3.40;3.20;;;18.30;99.90;;;;;;5079680;28;20460;-86
2022/06/23 01:56:05;;;;;;;3.00;2.83;;;18.20;99.90;;;;;;5072263;28;20454;-84
2022/06/23 01:58:47;;;;;;;3.17;2.87;;;18.20;99.90;;;;;;5072392;28;20467;-86
2022/06/23 02:01:20;;;;;;;3.80;3.60;;;18.20;99.90;;;;;;5074665;28;20459;-86
2022/06/23 02:03:56;;;;;;;5.57;5.07;;;18.20;99.90;;;;;;5077390;28;20462;-85
2022/06/23 02:06:29;;;;;;;3.23;2.90;;;18.30;99.90;;;;;;5081098;28;21260;-85
2022/06/23 02:09:05;;;;;;;7.13;2.53;;;18.40;99.90;;;;;;5075385;28;20453;-87
2022/06/23 02:11:39;;;;;;;3.63;3.30;;;18.60;99.90;;;;;;5090572;28;20490;-87
2022/06/23 02:14:20;;;;;;;3.43;3.23;;;18.60;99.90;;;;;;5099065;28;20510;-87
2022/06/23 02:16:55;;;;;;;4.70;2.90;;;18.60;99.90;;;;;;5071701;28;20460;-85
2022/06/23 02:19:30;;;;;;;4.10;3.00;;;18.60;99.90;;;;;;5082327;28;20528;-87
2022/06/23 02:22:05;;;;;;;2.97;2.77;;;18.60;99.90;;;;;;5076103;28;21526;-87
2022/06/23 02:24:38;;;;;;;2.83;2.63;;;18.60;99.90;;;;;;5078056;28;20462;-87
2022/06/23 02:27:14;;;;;;;4.20;3.83;;;18.70;99.90;;;;;;5071400;28;20495;-87
2022/06/23 02:29:46;;;;;;;3.20;2.90;;;18.70;99.90;;;;;;5073349;28;20948;-87
2022/06/23 02:32:18;;;;;;;3.83;3.53;;;18.60;99.90;;;;;;5072323;28;20873;-87
2022/06/23 02:34:50;;;;;;;12.10;4.37;;;18.40;99.90;;;;;;5069714;28;20451;-88
2022/06/23 02:37:51;;;;;;;3.10;2.90;;;18.30;99.90;;;;;;5072504;28;20554;-86
2022/06/23 02:40:23;;;;;;;4.50;4.07;;;18.40;99.90;;;;;;5075214;28;20799;-87
2022/06/23 02:42:54;;;;;;;2.80;2.60;;;18.40;99.90;;;;;;5069522;28;20467;-87
2022/06/23 02:45:41;;;;;;;2.77;2.57;;;18.40;99.90;;;;;;5076625;28;20455;-86
2022/06/23 02:48:27;;;;;;;4.50;3.60;;;18.40;99.90;;;;;;5072185;28;20541;-86
2022/06/23 02:51:11;;;;;;;2.63;2.27;;;18.40;99.90;;;;;;5075894;28;20503;-87
2022/06/23 02:54:03;;;;;;;5.30;3.90;;;18.40;99.90;;;;;;5074793;28;20471;-86
2022/06/23 02:57:04;;;;;;;6.50;3.77;;;18.40;99.90;;;;;;5076353;28;20478;-85
2022/06/23 02:59:41;;;;;;;4.90;3.60;;;18.40;99.90;;;;;;5077204;28;20976;-87
2022/06/23 03:02:17;;;;;;;6.80;4.17;;;18.40;99.90;;;;;;5076020;28;20466;-85
2022/06/23 03:04:48;;;;;;;5.03;3.40;;;18.30;99.90;;;;;;5072586;28;20552;-87
2022/06/23 03:07:21;;;;;;;3.73;3.23;;;18.30;99.90;;;;;;5100783;28;20546;-85
2022/06/23 03:09:59;;;;;;;4.13;3.50;;;18.20;99.90;;;;;;5080407;28;20493;-85
2022/06/23 03:12:34;;;;;;;3.47;3.07;;;18.10;99.90;;;;;;5082752;28;20500;-85
2022/06/23 03:15:04;;;;;;;4.10;3.67;;;18.10;99.90;;;;;;5078914;28;20466;-86
2022/06/23 03:17:41;;;;;;;3.30;3.00;;;18.10;99.90;;;;;;5075735;28;20547;-86
2022/06/23 03:20:13;;;;;;;3.83;3.63;;;18.10;99.90;;;;;;5076493;28;20469;-84
2022/06/23 03:22:48;;;;;;;4.17;3.77;;;18.10;99.90;;;;;;5078591;28;20461;-87
2022/06/23 03:25:21;;;;;;;2.93;2.73;;;18.00;99.90;;;;;;5077637;28;20458;-85
2022/06/23 03:27:53;;;;;;;6.80;3.43;;;18.00;99.90;;;;;;5074908;28;20575;-85
2022/06/23 03:30:34;;;;;;;2.83;2.63;;;18.00;99.90;;;;;;5075455;28;20460;-85
2022/06/23 03:33:11;;;;;;;3.70;3.27;;;18.10;99.90;;;;;;5074550;28;21013;-87
2022/06/23 03:35:42;;;;;;;9.33;3.40;;;18.00;99.90;;;;;;5076656;28;20462;-85
2022/06/23 03:41:36;;;;;;;4.90;2.83;;;18.10;99.90;;;;;;5079533;28;20458;-85
2022/06/23 03:44:01;;;;;;;5.53;2.20;;;18.20;99.90;;;;;;5063510;28;20447;-86
2022/06/23 03:46:34;;;;;;;3.70;3.40;;;18.30;99.90;;;;;;5081714;28;21015;-85
2022/06/23 03:49:14;;;;;;;4.10;3.80;;;18.40;99.90;;;;;;5078925;28;20515;-85
2022/06/23 03:51:49;;;;;;;2.50;2.30;;;18.40;99.90;;;;;;5075628;28;20553;-85
2022/06/23 03:54:21;;;;;;;2.23;2.10;;;18.40;99.90;;;;;;5072091;28;20605;-85
2022/06/23 03:56:51;;;;;;;3.60;3.30;;;18.40;99.90;;;;;;5078123;28;21120;-86
2022/06/23 03:59:24;;;;;;;3.07;1.97;;;18.50;99.90;;;;;;5082583;28;20526;-86
2022/06/23 04:01:55;;;;;;;2.87;2.70;;;18.50;99.90;;;;;;5081664;28;21221;-87
2022/06/23 04:04:25;;;;;;;2.60;2.40;;;18.40;99.90;;;;;;5078570;28;21019;-85
2022/06/23 04:06:53;;;;;;;2.90;2.67;;;18.40;99.90;;;;;;5071249;28;20486;-86
2022/06/23 04:09:24;;;;;;;2.30;2.20;;;18.50;99.90;;;;;;5077600;28;20976;-85
2022/06/23 04:12:07;;;;;;;1.97;1.80;;;18.50;99.90;;;;;;5073833;28;20521;-85
2022/06/23 04:14:52;;;;;;;2.57;1.70;;;18.60;99.90;;;;;;5078179;28;20914;-87
2022/06/23 04:17:25;;;;;;;2.10;2.00;;;18.70;99.90;;;;;;5079000;28;20525;-86
2022/06/23 04:19:58;;;;;;;4.17;3.40;;;18.70;99.90;;;;;;5076496;28;20463;-86
2022/06/23 04:22:31;;;;;;;2.27;2.10;;;18.90;99.90;;;;;;5075591;28;20548;-90
2022/06/23 04:25:02;;;;;;;3.67;2.80;;;19.00;99.90;;;;;;5077096;28;20466;-86
2022/06/23 04:27:37;;;;;;;1.77;1.67;;;19.20;99.90;;;;;;5077598;28;20586;-85
2022/06/23 04:30:05;;;;;;;2.93;2.73;;;19.40;99.90;;;;;;5078652;28;20541;-86
2022/06/23 04:32:37;;;;;;;3.43;3.13;;;19.70;99.90;;;;;;5075750;28;20464;-84
2022/06/23 04:35:16;;;;;;;2.17;1.97;;;20.00;99.90;;;;;;5077874;28;20516;-86
2022/06/23 04:37:51;;;;;;;5.17;3.07;;;20.00;99.90;;;;;;5077973;28;20469;-86
2022/06/23 04:40:23;;;;;;;3.13;2.83;;;19.90;99.90;;;;;;5077043;28;20470;-84
2022/06/23 04:42:57;;;;;;;2.30;2.10;;;19.90;99.90;;;;;;5075167;28;20471;-86
2022/06/23 04:45:44;;;;;;;2.20;1.90;;;19.90;99.90;;;;;;5077970;28;20481;-87
2022/06/23 04:48:19;;;;;;;3.50;2.80;;;19.90;99.90;;;;;;5084135;28;20482;-85
2022/06/23 04:50:54;;;;;;;3.97;3.00;;;19.90;99.90;;;;;;5070771;28;20450;-87
2022/06/23 04:53:34;;;;;;;4.30;2.43;;;19.70;99.90;;;;;;5083369;28;20460;-84
2022/06/23 04:56:07;;;;;;;7.13;3.60;;;19.70;99.90;;;;;;5078717;28;20993;-87
2022/06/23 04:58:41;;;;;;;2.90;1.77;;;20.00;99.90;;;;;;5071441;28;20453;-87
2022/06/23 05:01:12;;;;;;;1.93;1.80;;;20.00;99.90;;;;;;5078524;28;20497;-86
2022/06/23 05:03:47;;;;;;;2.43;2.33;;;20.20;99.90;;;;;;5079313;28;20530;-86
2022/06/23 05:06:29;;;;;;;2.40;2.20;;;20.40;99.90;;;;;;5072739;28;20972;-85
2022/06/23 05:09:02;;;;;;;1.90;1.80;;;20.50;99.90;;;;;;5073854;28;20459;-87
2022/06/23 05:11:34;;;;;;;1.63;1.53;;;20.50;99.90;;;;;;5073993;28;20493;-86
2022/06/23 05:14:05;;;;;;;4.43;2.10;;;20.40;99.90;;;;;;5067841;28;20573;-87
2022/06/23 05:16:37;;;;;;;1.77;1.67;;;20.40;99.90;;;;;;5072280;28;20488;-86
2022/06/23 05:19:09;;;;;;;4.60;2.17;;;20.40;99.90;;;;;;5072972;28;22200;-86
2022/06/23 05:21:42;;;;;;;2.37;2.23;;;20.50;99.90;;;;;;5076364;28;20471;-86
2022/06/23 05:24:14;;;;;;;1.73;1.63;;;20.50;99.90;;;;;;5080890;28;20443;-87
2022/06/23 05:26:46;;;;;;;4.00;1.53;;;20.80;99.90;;;;;;5073894;28;20997;-85
2022/06/23 05:29:17;;;;;;;1.63;1.37;;;20.60;99.90;;;;;;5076756;28;20956;-87
2022/06/23 05:31:47;;;;;;;2.47;2.23;;;20.90;99.90;;;;;;5066934;28;20463;-87
2022/06/23 05:34:17;;;;;;;2.30;2.10;;;20.90;99.90;;;;;;5070615;28;20519;-88
2022/06/23 05:36:51;;;;;;;3.10;2.10;;;21.20;99.90;;;;;;5079123;28;20544;-86
2022/06/23 05:39:22;;;;;;;2.00;1.90;;;21.30;99.90;;;;;;5081175;28;21119;-86
2022/06/23 05:41:51;;;;;;;2.07;1.90;;;21.40;99.90;;;;;;5075197;28;20903;-89
2022/06/23 05:44:22;;;;;;;2.60;1.30;;;21.30;99.90;;;;;;5075804;28;20717;-85
2022/06/23 05:46:51;;;;;;;1.60;1.50;;;21.40;99.90;;;;;;5067544;28;20530;-87
2022/06/23 05:49:21;;;;;;;1.53;1.43;;;21.50;99.90;;;;;;5081588;28;20450;-89
2022/06/23 05:51:55;;;;;;;1.50;1.40;;;21.60;99.90;;;;;;5077544;28;20576;-89
2022/06/23 05:54:27;;;;;;;1.10;1.00;;;21.70;99.90;;;;;;5081322;28;20452;-88
2022/06/23 05:57:02;;;;;;;1.13;1.03;;;21.60;99.90;;;;;;5076479;28;20467;-87
2022/06/23 05:59:36;;;;;;;1.63;1.53;;;21.50;99.90;;;;;;5083744;28;20474;-89
2022/06/23 06:02:08;;;;;;;2.20;1.97;;;21.40;99.90;;;;;;5073651;28;20485;-90
2022/06/23 06:04:43;;;;;;;2.73;2.10;;;21.40;99.90;;;;;;5071295;28;20455;-88
2022/06/23 06:07:15;;;;;;;1.67;1.57;;;21.60;99.90;;;;;;5104645;28;20475;-88
2022/06/23 06:09:43;;;;;;;2.27;1.60;;;21.50;99.90;;;;;;5092259;28;20489;-88
2022/06/23 06:12:16;;;;;;;1.93;1.83;;;21.30;99.90;;;;;;5093632;28;20470;-88
2022/06/23 06:14:46;;;;;;;1.40;1.30;;;21.40;99.90;;;;;;5081831;28;20551;-90
2022/06/23 06:17:21;;;;;;;1.67;1.57;;;21.60;99.90;;;;;;5084197;28;20475;-88
2022/06/23 06:19:51;;;;;;;2.03;1.60;;;21.80;99.90;;;;;;5077413;28;20466;-88
2022/06/23 06:22:39;;;;;;;2.53;1.63;;;22.10;99.90;;;;;;5083015;28;20458;-88
2022/06/23 06:25:08;;;;;;;2.20;2.00;;;22.30;99.90;;;;;;5071231;28;20533;-88
2022/06/23 06:27:37;;;;;;;1.73;1.43;;;21.90;99.90;;;;;;5076937;28;20881;-88
2022/06/23 06:30:05;;;;;;;1.20;1.10;;;22.10;99.90;;;;;;5073458;28;20472;-88
2022/06/23 06:32:35;;;;;;;1.93;1.20;;;22.10;99.90;;;;;;5082678;28;20466;-88
2022/06/23 06:35:17;;;;;;;1.00;0.80;;;22.10;99.90;;;;;;5071232;28;20491;-88
2022/06/23 06:37:51;;;;;;;7.97;0.97;;;22.50;99.90;;;;;;5071865;28;20508;-88
2022/06/23 06:40:18;;;;;;;0.73;0.60;;;23.10;99.90;;;;;;5076847;28;20476;-88
2022/06/23 06:42:50;;;;;;;2.30;1.73;;;22.90;99.90;;;;;;5076349;28;20467;-90
2022/06/23 06:45:20;;;;;;;3.33;1.33;;;22.20;99.90;;;;;;5076505;28;20451;-87
2022/06/23 06:47:48;;;;;;;1.40;1.30;;;22.00;99.90;;;;;;5074807;28;20486;-88
2022/06/23 06:50:31;;;;;;;3.83;1.03;;;22.00;99.90;;;;;;5084849;28;20473;-87
2022/06/23 06:53:05;;;;;;;2.23;0.87;;;21.80;99.90;;;;;;5076519;28;20455;-88
2022/06/23 06:55:38;;;;;;;1.60;1.50;;;21.90;99.90;;;;;;5076670;28;21082;-88
2022/06/23 06:58:12;;;;;;;1.20;1.10;;;22.00;99.90;;;;;;5081713;28;20478;-88
2022/06/23 07:00:44;;;;;;;1.13;1.03;;;22.20;99.90;;;;;;5079690;28;20898;-88
2022/06/23 07:03:16;;;;;;;1.60;1.50;;;22.20;99.90;;;;;;5079159;28;20455;-88
2022/06/23 07:05:47;;;;;;;1.87;1.20;;;22.30;99.90;;;;;;5081341;28;20454;-87
2022/06/23 07:08:21;;;;;;;3.13;2.30;;;22.40;99.90;;;;;;5071100;28;20479;-88
2022/06/23 07:10:52;;;;;;;1.77;1.67;;;22.30;99.90;;;;;;5080241;28;20475;-88
2022/06/23 07:13:27;;;;;;;1.40;1.30;;;22.30;99.90;;;;;;5088153;28;20569;-87
2022/06/23 07:16:00;;;;;;;1.17;1.07;;;22.20;99.90;;;;;;5085435;28;20450;-88
2022/06/23 07:18:34;;;;;;;1.77;1.67;;;22.40;99.90;;;;;;5080524;28;20466;-88
2022/06/23 07:21:08;;;;;;;6.00;1.10;;;23.10;99.90;;;;;;5084868;28;21005;-88
2022/06/23 07:23:41;;;;;;;1.57;1.43;;;23.20;99.90;;;;;;5084571;28;20471;-88
2022/06/23 07:26:38;;;;;;;2.77;1.50;;;23.10;99.90;;;;;;5087515;28;20450;-88
2022/06/23 07:29:14;;;;;;;1.17;1.10;;;22.80;99.90;;;;;;5061105;28;20944;-87
2022/06/23 07:31:54;;;;;;;10.03;2.30;;;22.20;99.90;;;;;;5078278;28;20552;-88
2022/06/23 07:34:24;;;;;;;3.13;1.10;;;21.80;99.90;;;;;;5079039;28;20482;-88
2022/06/23 07:36:57;;;;;;;1.17;0.80;;;21.90;99.90;;;;;;5083575;28;20524;-88
2022/06/23 07:39:33;;;;;;;2.40;1.77;;;22.10;99.90;;;;;;5080239;28;21075;-88
2022/06/23 07:42:05;;;;;;;1.43;1.00;;;22.20;99.90;;;;;;5085884;28;20442;-87
2022/06/23 07:44:36;;;;;;;3.03;1.27;;;22.20;99.90;;;;;;5075372;28;20477;-88
2022/06/23 07:47:04;;;;;;;4.60;2.10;;;22.30;99.90;;;;;;5082117;28;20985;-88
2022/06/23 07:49:33;;;;;;;2.90;1.27;;;22.40;99.90;;;;;;5080706;28;20494;-87
2022/06/23 07:52:02;;;;;;;3.37;1.40;;;22.80;99.90;;;;;;5081033;28;20470;-87
2022/06/23 07:54:32;;;;;;;1.77;1.13;;;23.20;99.90;;;;;;5083655;28;20467;-88
2022/06/23 07:56:59;;;;;;;0.97;0.90;;;23.60;99.90;;;;;;5082287;28;20450;-88
2022/06/23 07:59:34;;;;;;;1.07;0.97;;;23.60;99.90;;;;;;5071783;28;20471;-90
2022/06/23 08:02:09;;;;;;;3.17;1.40;;;23.50;99.90;;;;;;5081559;28;20520;-87
2022/06/23 08:04:43;;;;;;;1.53;1.20;;;23.30;99.90;;;;;;5073583;28;20450;-88
2022/06/23 08:07:12;;;;;;;2.07;1.67;;;23.90;99.90;;;;;;5082727;28;20562;-86
2022/06/23 08:09:46;;;;;;;1.63;1.03;;;24.10;99.90;;;;;;5076798;28;20487;-86
2022/06/23 08:18:09;;;;;;;2.63;2.43;;;24.60;99.90;;;;;;5030218;28;20878;-87
2022/06/23 08:20:41;;;;;;;1.40;1.30;;;25.00;99.90;;;;;;5071206;28;20529;-88
2022/06/23 08:23:13;;;;;;;7.20;5.10;;;24.80;99.90;;;;;;5077042;28;20495;-87
2022/06/23 08:25:43;;;;;;;5.03;2.30;;;24.90;99.90;;;;;;5070530;28;20493;-86
2022/06/23 08:28:10;;;;;;;3.40;2.00;;;25.10;99.90;;;;;;5074767;28;20478;-86
2022/06/23 08:30:39;;;;;;;3.50;1.40;;;24.30;99.90;;;;;;5083498;28;20462;-85
2022/06/23 08:33:07;;;;;;;3.73;1.20;;;24.60;99.90;;;;;;5085424;28;21214;-86
2022/06/23 08:35:41;;;;;;;1.83;1.73;;;25.00;99.90;;;;;;5078065;28;20984;-85
2022/06/23 08:38:12;;;;;;;10.73;1.67;;;25.20;99.90;;;;;;5081067;28;20529;-86
2022/06/23 08:41:05;;;;;;;3.53;2.27;;;25.30;99.90;;;;;;5085468;28;20886;-85
2022/06/23 08:43:41;;;;;;;4.70;4.30;;;25.30;99.90;;;;;;5076193;28;20488;-86
2022/06/23 08:46:18;;;;;;;5.90;2.17;;;25.10;99.90;;;;;;5081699;28;20466;-86
2022/06/23 08:48:53;;;;;;;4.17;1.90;;;24.90;99.90;;;;;;5075206;28;21433;-86
2022/06/23 08:51:24;;;;;;;1.80;1.30;;;25.10;99.90;;;;;;5084658;28;20541;-87
2022/06/23 08:54:02;;;;;;;3.33;2.30;;;25.40;99.90;;;;;;5082169;28;20539;-85
2022/06/23 08:56:35;;;;;;;1.53;1.40;;;26.20;99.90;;;;;;5077782;28;20494;-89
2022/06/23 08:59:13;;;;;;;2.77;1.53;;;26.60;99.60;;;;;;5074620;28;20570;-88
2022/06/23 09:01:47;;;;;;;2.87;2.23;;;26.30;98.40;;;;;;5072065;28;20451;-88
2022/06/23 09:04:24;;;;;;;3.13;2.60;;;25.60;98.40;;;;;;5079762;28;20458;-86
2022/06/23 09:06:57;;;;;;;1.10;1.10;;;25.40;98.70;;;;;;5097957;28;20455;-87
2022/06/23 09:09:42;;;;;;;1.57;1.47;;;25.20;98.90;;;;;;5085375;28;20991;-86
2022/06/23 09:12:22;;;;;;;1.73;1.50;;;24.80;99.10;;;;;;5089873;28;20834;-86
2022/06/23 09:15:25;;;;;;;3.10;2.33;;;24.60;99.20;;;;;;5077145;28;20486;-86
2022/06/23 09:18:37;;;;;;;7.63;1.50;;;24.70;98.30;;;;;;5074603;28;21029;-86
2022/06/23 09:21:28;;;;;;;1.20;1.10;;;24.80;98.40;;;;;;5066217;28;20584;-87
2022/06/23 09:24:26;;;;;;;4.97;1.60;;;25.00;98.20;;;;;;5074063;28;20468;-86
2022/06/23 09:26:59;;;;;;;2.00;1.77;;;25.30;97.70;;;;;;5071763;28;20521;-86
2022/06/23 09:29:45;;;;;;;4.87;1.67;;;25.40;97.60;;;;;;5072664;28;20885;-87
2022/06/23 09:32:25;;;;;;;2.40;2.30;;;25.60;96.80;;;;;;5070613;28;20482;-87
2022/06/23 09:35:16;;;;;;;1.63;1.53;;;25.90;97.40;;;;;;5077677;28;21089;-87
2022/06/23 09:38:00;;;;;;;1.73;1.57;;;25.70;98.20;;;;;;5071056;28;20468;-87
2022/06/23 09:40:35;;;;;;;2.80;1.80;;;25.50;98.10;;;;;;5072116;28;21055;-88
2022/06/23 09:43:41;;;;;;;1.60;1.50;;;26.00;96.10;;;;;;5074443;28;22153;-87
2022/06/23 09:46:50;;;;;;;2.10;1.90;;;26.30;96.50;;;;;;5072558;28;20467;-87
2022/06/23 09:49:48;;;;;;;2.00;1.90;;;26.50;95.40;;;;;;5077842;28;20483;-86
2022/06/23 09:53:01;;;;;;;1.50;1.40;;;26.60;93.70;;;;;;5071589;28;20946;-87
2022/06/23 09:55:59;;;;;;;3.93;2.00;;;27.20;91.30;;;;;;5043224;28;21220;-87
2022/06/23 09:58:51;;;;;;;4.27;1.53;;;27.30;91.30;;;;;;5081216;28;20501;-87
2022/06/23 10:01:34;;;;;;;1.90;1.80;;;27.10;91.70;;;;;;5077960;28;20898;-87
2022/06/23 10:04:26;;;;;;;2.33;1.47;;;27.60;90.70;;;;;;5074029;28;20880;-86
2022/06/23 10:07:15;;;;;;;6.40;1.83;;;27.40;91.30;;;;;;5074530;28;20470;-87
2022/06/23 10:09:58;;;;;;;1.23;1.13;;;27.40;90.40;;;;;;5080670;28;20883;-87
2022/06/23 10:12:53;;;;;;;2.40;1.53;;;27.20;90.10;;;;;;5069292;28;20513;-87
2022/06/23 10:15:36;;;;;;;1.97;1.70;;;27.20;89.40;;;;;;5076446;28;20546;-87
2022/06/23 10:18:32;;;;;;;4.10;1.93;;;27.40;89.10;;;;;;5075202;28;20470;-86
2022/06/23 10:21:16;;;;;;;3.73;1.63;;;27.30;88.90;;;;;;5081651;28;20467;-87
2022/06/23 10:23:58;;;;;;;4.97;1.97;;;27.20;90.40;;;;;;5077984;28;20442;-87
2022/06/23 10:26:49;;;;;;;1.70;1.60;;;27.20;89.80;;;;;;5074385;28;20490;-87
2022/06/23 10:29:48;;;;;;;2.07;1.00;;;27.20;88.30;;;;;;5068102;28;20578;-87
2022/06/23 10:32:45;;;;;;;2.20;2.00;;;27.60;92.40;;;;;;5075829;28;20949;-87
2022/06/23 10:35:28;;;;;;;3.30;1.33;;;27.70;91.00;;;;;;5075458;28;20465;-87
2022/06/23 10:38:21;;;;;;;1.63;1.53;;;27.60;89.70;;;;;;5072635;28;20466;-87
2022/06/23 10:41:09;;;;;;;3.00;1.57;;;27.60;89.30;;;;;;5072307;28;20451;-87
2022/06/23 10:43:59;;;;;;;1.53;1.33;;;28.10;90.30;;;;;;5082272;28;20463;-87
2022/06/23 10:46:32;;;;;;;1.23;1.13;;;28.00;88.60;;;;;;5074291;28;20462;-87
2022/06/23 10:49:43;;;;;;;1.70;1.60;;;28.40;88.50;;;;;;5081688;28;20566;-87
2022/06/23 10:52:37;;;;;;;1.50;1.40;;;27.80;90.00;;;;;;5079082;28;20538;-88
2022/06/23 10:55:32;;;;;;;2.63;1.57;;;27.40;89.60;;;;;;5080721;28;20812;-88
2022/06/23 10:58:28;;;;;;;2.20;1.80;;;27.60;90.80;;;;;;5074825;28;20572;-87
2022/06/23 11:01:21;;;;;;;1.80;1.30;;;28.00;90.80;;;;;;5077408;28;20466;-86
2022/06/23 11:04:21;;;;;;;4.30;1.93;;;27.90;86.40;;;;;;5075855;28;20447;-87
2022/06/23 11:07:10;;;;;;;2.20;1.23;;;27.80;88.90;;;;;;5085970;28;20447;-87
2022/06/23 11:09:54;;;;;;;1.80;1.47;;;28.00;88.40;;;;;;5086353;28;20482;-86
2022/06/23 11:12:37;;;;;;;2.30;1.73;;;28.20;86.10;;;;;;5080910;28;20446;-86
2022/06/23 11:15:15;;;;;;;0.90;0.90;;;28.30;84.30;;;;;;5084193;28;20542;-87
2022/06/23 11:17:58;;;;;;;1.57;1.03;;;28.20;86.70;;;;;;5085189;28;20462;-87
2022/06/23 11:20:37;;;;;;;1.63;1.53;;;28.00;86.90;;;;;;5086081;28;20555;-86
2022/06/23 11:23:14;;;;;;;3.00;2.10;;;28.10;84.80;;;;;;5087494;28;20507;-87
2022/06/23 11:25:54;;;;;;;3.97;2.00;;;27.90;85.40;;;;;;5075155;28;20468;-87
2022/06/23 11:28:34;;;;;;;1.53;1.43;;;27.60;86.70;;;;;;5083268;28;20443;-86
2022/06/23 11:31:14;;;;;;;2.30;1.77;;;27.30;89.60;;;;;;5072428;28;20538;-86
2022/06/23 11:33:58;;;;;;;1.97;1.87;;;27.10;89.90;;;;;;5082975;28;20446;-86
2022/06/23 11:36:47;;;;;;;2.50;1.37;;;27.10;89.80;;;;;;5083858;28;20459;-86
2022/06/23 11:39:38;;;;;;;1.83;1.40;;;27.10;90.80;;;;;;5085386;28;20474;-87
2022/06/23 11:42:40;;;;;;;1.77;1.67;;;27.30;90.00;;;;;;5083896;28;20904;-86
2022/06/23 11:45:22;;;;;;;2.00;1.80;;;27.50;89.50;;;;;;5077329;28;20459;-86
2022/06/23 11:48:01;;;;;;;4.73;1.67;;;27.20;90.10;;;;;;5078617;28;20539;-86
2022/06/23 11:50:42;;;;;;;3.67;1.70;;;26.80;90.60;;;;;;5079359;28;20731;-86
2022/06/23 11:53:35;;;;;;;8.53;2.10;;;26.80;91.30;;;;;;5086479;28;20460;-86
2022/06/23 11:56:10;;;;;;;1.30;1.20;;;27.00;90.70;;;;;;5079832;28;20455;-87
2022/06/23 11:59:02;;;;;;;2.23;1.53;;;27.50;90.40;;;;;;5083223;28;20446;-86
2022/06/23 12:01:30;;;;;;;1.37;1.23;;;28.10;89.10;;;;;;5073777;28;20461;-86
2022/06/23 12:04:30;;;;;;;3.73;1.80;;;28.40;88.20;;;;;;5087603;28;20440;-86
2022/06/23 12:07:22;;;;;;;2.00;1.80;;;27.60;88.30;;;;;;5103148;28;20459;-86
2022/06/23 12:09:57;;;;;;;6.00;1.57;;;27.20;89.80;;;;;;5090176;28;20513;-86
2022/06/23 12:12:24;;;;;;;2.23;1.97;;;27.50;90.50;;;;;;5086261;28;20533;-86
2022/06/23 12:14:53;;;;;;;2.23;1.57;;;27.90;90.20;;;;;;5087697;28;21482;-87
2022/06/23 12:17:24;;;;;;;2.47;1.53;;;27.80;90.00;;;;;;5085372;28;20957;-86
2022/06/23 12:19:57;;;;;;;1.93;1.17;;;27.90;88.10;;;;;;5078471;28;20490;-86
2022/06/23 12:22:32;;;;;;;1.73;1.63;;;27.90;88.70;;;;;;5081266;28;20524;-86
2022/06/23 12:25:09;;;;;;;6.43;1.33;;;27.70;85.80;;;;;;5073034;28;20994;-86
2022/06/23 12:27:40;;;;;;;3.20;1.73;;;28.10;86.80;;;;;;5066738;28;20682;-87
2022/06/23 12:30:12;;;;;;;2.77;1.33;;;28.10;83.10;;;;;;5081635;28;20559;-86
2022/06/23 12:32:46;;;;;;;3.67;1.60;;;28.20;78.60;;;;;;5077556;28;20508;-86
2022/06/23 12:35:22;;;;;;;2.17;1.97;;;28.00;80.70;;;;;;5079487;28;20866;-86
2022/06/23 12:37:57;;;;;;;1.97;1.30;;;28.00;82.60;;;;;;5076083;28;20463;-86
2022/06/23 12:40:28;;;;;;;1.83;1.50;;;27.80;85.10;;;;;;5075458;28;20471;-86
2022/06/23 12:43:01;;;;;;;4.60;1.60;;;27.80;85.00;;;;;;5072457;28;20485;-86
2022/06/23 12:45:59;;;;;;;1.43;1.33;;;27.60;86.10;;;;;;5081012;28;20458;-87
2022/06/23 12:49:06;;;;;;;3.10;1.57;;;27.80;84.50;;;;;;5076381;28;20563;-86
2022/06/23 12:51:43;;;;;;;3.10;1.53;;;28.00;85.60;;;;;;5078200;28;20478;-86
2022/06/23 12:54:23;;;;;;;2.30;1.20;;;27.90;84.70;;;;;;5080523;28;20438;-86
2022/06/23 12:57:06;;;;;;;4.27;1.93;;;27.50;87.30;;;;;;5074671;28;20462;-87
2022/06/23 12:59:43;;;;;;;3.03;2.03;;;27.40;89.90;;;;;;5076879;28;20470;-86
2022/06/23 13:02:20;;;;;;;2.30;1.80;;;27.60;87.20;;;;;;5073680;28;20624;-86
2022/06/23 13:04:52;;;;;;;5.17;1.80;;;27.70;89.10;;;;;;5082742;28;20455;-86
2022/06/23 13:07:26;;;;;;;2.40;1.73;;;27.90;85.00;;;;;;5072692;28;20467;-86
2022/06/23 13:10:01;;;;;;;2.00;1.67;;;27.90;88.10;;;;;;5084291;28;20505;-86
2022/06/23 13:12:38;;;;;;;1.80;1.70;;;28.00;87.70;;;;;;5082549;28;21004;-86
2022/06/23 13:15:11;;;;;;;1.27;1.17;;;28.40;86.30;;;;;;5077147;28;21255;-86
2022/06/23 13:17:48;;;;;;;2.33;2.13;;;28.60;85.00;;;;;;5082810;28;20455;-87
2022/06/23 13:20:25;;;;;;;1.77;1.67;;;28.70;85.40;;;;;;5081423;28;20466;-86
2022/06/23 13:22:59;;;;;;;2.57;1.77;;;29.00;85.20;;;;;;5077996;28;20549;-86
2022/06/23 13:25:32;;;;;;;1.70;1.53;;;29.00;87.60;;;;;;5072414;28;21005;-86
2022/06/23 13:27:59;;;;;;;3.00;2.63;;;29.80;84.90;;;;;;5073531;28;20560;-87
2022/06/23 13:30:31;;;;;;;3.20;1.50;;;29.80;80.10;;;;;;5080671;28;20486;-87
2022/06/23 13:33:06;;;;;;;2.20;1.83;;;29.90;83.60;;;;;;5075512;28;20997;-86
2022/06/23 13:35:39;;;;;;;3.00;1.47;;;29.80;81.70;;;;;;5078818;28;20471;-86
2022/06/23 13:38:17;;;;;;;2.50;1.97;;;30.10;80.20;;;;;;5078079;28;21044;-86
2022/06/23 13:40:51;;;;;;;2.63;1.17;;;29.60;80.90;;;;;;5080856;28;20494;-86
2022/06/23 13:43:27;;;;;;;3.43;2.23;;;29.70;81.50;;;;;;5077744;28;20553;-86
2022/06/23 13:46:01;;;;;;;1.40;1.30;;;29.80;80.90;;;;;;5074611;28;21160;-87